Time;durP1;ratioP1;P1;durP2;ratioP2;P2;SDS_P1;SDS_P2;PMS_P1;PMS_P2;Temp;Humidity;BMP_temperature;BMP_pressure;BME280_temperature;BME280_humidity;BME280_pressure;Samples;Min_cycle;Max_cycle;Signal;HPM_P1;HPM_P2
2024/01/06 00:00:24;;;;;;;0.60;0.60;;;;;;;4.58;94.44;95641.19;29394;205;64013;-62
2024/01/06 00:00:55;;;;;;;0.60;0.60;;;;;;;4.55;94.08;95633.69;29395;218;63004;-55
2024/01/06 00:01:26;;;;;;;0.60;0.60;;;;;;;4.53;94.33;95643.94;29395;262;63009;-55
2024/01/06 00:01:58;;;;;;;0.60;0.60;;;;;;;4.53;94.79;95638.56;29395;241;63004;-62
2024/01/06 00:02:31;;;;;;;0.60;0.60;;;;;;;4.51;94.72;95629.97;29395;301;63009;-68
2024/01/06 00:03:03;;;;;;;0.60;0.60;;;;;;;4.52;94.89;95633.47;29395;262;63004;-64
2024/01/06 00:03:34;;;;;;;0.60;0.60;;;;;;;4.50;94.95;95641.84;29395;239;63009;-62
2024/01/06 00:04:08;;;;;;;0.60;0.60;;;;;;;4.54;94.94;95642.03;29395;222;63005;-63
2024/01/06 00:04:39;;;;;;;0.60;0.60;;;;;;;4.56;94.93;95637.19;29395;205;63009;-63
2024/01/06 00:05:10;;;;;;;0.60;0.60;;;;;;;4.56;94.36;95640.69;29395;198;63005;-62
2024/01/06 00:05:42;;;;;;;0.60;0.60;;;;;;;4.55;94.41;95646.34;29394;222;64013;-65
2024/01/06 00:06:14;;;;;;;0.60;0.60;;;;;;;4.54;94.32;95642.03;29395;226;63012;-62
2024/01/06 00:06:46;;;;;;;0.60;0.60;;;;;;;4.52;94.68;95636.16;29395;219;63009;-64
2024/01/06 00:07:18;;;;;;;0.60;0.60;;;;;;;4.50;94.51;95644.53;29395;267;63005;-54
2024/01/06 00:07:49;;;;;;;0.60;0.60;;;;;;;4.48;94.75;95641.31;29395;202;63009;-55
2024/01/06 00:08:24;;;;;;;0.60;0.60;;;;;;;4.50;94.98;95644.53;29395;198;63004;-64
2024/01/06 00:08:55;;;;;;;0.60;0.60;;;;;;;4.54;94.65;95640.16;29394;203;64013;-55
2024/01/06 00:09:27;;;;;;;0.60;0.60;;;;;;;4.59;93.93;95642.81;29395;257;63004;-65
2024/01/06 00:09:58;;;;;;;0.60;0.60;;;;;;;4.65;93.11;95640.87;29395;220;63009;-69
2024/01/06 00:10:29;;;;;;;0.60;0.60;;;;;;;4.69;92.56;95642.69;29395;202;63004;-69
2024/01/06 00:11:02;;;;;;;0.60;0.60;;;;;;;4.71;92.35;95645.91;29395;219;63008;-64
2024/01/06 00:11:34;;;;;;;0.60;0.60;;;;;;;4.71;92.26;95639.72;29395;224;63017;-67
2024/01/06 00:12:06;;;;;;;0.60;0.60;;;;;;;4.70;92.29;95649.66;29395;224;63009;-66
2024/01/06 00:12:38;;;;;;;0.60;0.60;;;;;;;4.70;92.54;95636.25;29394;277;64001;-65
2024/01/06 00:13:11;;;;;;;0.60;0.60;;;;;;;4.69;92.39;95640.00;29395;197;63009;-64
2024/01/06 00:13:43;;;;;;;0.60;0.60;;;;;;;4.66;92.45;95648.63;29395;200;63005;-65
2024/01/06 00:14:15;;;;;;;0.60;0.60;;;;;;;4.65;92.80;95643.56;29395;229;63009;-56
2024/01/06 00:14:46;;;;;;;0.60;0.60;;;;;;;4.65;93.01;95641.66;29395;218;63009;-64
2024/01/06 00:15:18;;;;;;;0.60;0.60;;;;;;;4.62;93.08;95647.59;29395;229;63023;-55
2024/01/06 00:15:49;;;;;;;0.60;0.60;;;;;;;4.60;92.77;95655.16;29395;235;63010;-56
2024/01/06 00:16:21;;;;;;;0.60;0.60;;;;;;;4.57;92.87;95639.59;29395;230;63009;-66
2024/01/06 00:16:52;;;;;;;0.60;0.60;;;;;;;4.56;92.92;95643.38;29395;216;63004;-65
2024/01/06 00:17:23;;;;;;;0.60;0.60;;;;;;;4.55;93.43;95649.81;29395;237;63025;-64
2024/01/06 00:17:55;;;;;;;0.60;0.60;;;;;;;4.56;93.34;95654.13;29394;240;64008;-66
2024/01/06 00:18:27;;;;;;;0.52;0.52;;;;;;;4.55;93.60;95652.50;29395;196;63008;-56
2024/01/06 00:18:59;;;;;;;0.60;0.60;;;;;;;4.54;92.91;95650.09;29395;226;63005;-56
2024/01/06 00:19:31;;;;;;;0.60;0.60;;;;;;;4.56;93.28;95654.13;29394;237;64014;-57
2024/01/06 00:20:04;;;;;;;0.60;0.60;;;;;;;4.63;92.56;95653.78;29395;206;63005;-63
2024/01/06 00:20:36;;;;;;;0.52;0.52;;;;;;;4.63;92.25;95649.22;29395;217;63009;-63
2024/01/06 00:21:08;;;;;;;0.60;0.60;;;;;;;4.62;91.76;95652.97;29395;255;63005;-63
2024/01/06 00:21:40;;;;;;;0.60;0.60;;;;;;;4.62;92.03;95647.59;29394;212;64013;-67
2024/01/06 00:22:11;;;;;;;0.60;0.60;;;;;;;4.59;92.06;95648.16;29394;222;64004;-63
2024/01/06 00:22:44;;;;;;;0.60;0.60;;;;;;;4.60;92.44;95643.59;29395;214;63026;-62
2024/01/06 00:23:17;;;;;;;0.60;0.60;;;;;;;4.60;92.34;95647.09;29395;312;63012;-64
2024/01/06 00:23:49;;;;;;;0.60;0.60;;;;;;;4.58;92.11;95651.94;29395;291;63009;-64
2024/01/06 00:24:20;;;;;;;0.60;0.60;;;;;;;4.56;92.01;95642.56;29395;219;63004;-64
2024/01/06 00:24:51;;;;;;;0.60;0.60;;;;;;;4.54;92.21;95645.53;29395;272;63023;-64
2024/01/06 00:25:23;;;;;;;0.60;0.60;;;;;;;4.51;92.32;95646.09;29395;202;63004;-63
2024/01/06 00:25:54;;;;;;;0.60;0.60;;;;;;;4.51;92.81;95651.47;29395;221;63008;-64
2024/01/06 00:26:25;;;;;;;0.60;0.60;;;;;;;4.50;93.02;95649.91;29395;250;63005;-66
2024/01/06 00:26:56;;;;;;;0.60;0.60;;;;;;;4.49;93.03;95659.03;29394;198;64014;-64
2024/01/06 00:27:28;;;;;;;0.60;0.60;;;;;;;4.47;93.08;95649.66;29396;198;63005;-66
2024/01/06 00:27:59;;;;;;;0.60;0.60;;;;;;;4.45;93.17;95658.00;29396;198;63017;-65
2024/01/06 00:28:31;;;;;;;0.60;0.60;;;;;;;4.43;93.20;95654.00;29396;275;63005;-65
2024/01/06 00:29:02;;;;;;;0.60;0.60;;;;;;;4.43;93.24;95660.16;29395;266;64013;-65
2024/01/06 00:29:33;;;;;;;0.60;0.60;;;;;;;4.42;93.38;95657.78;29396;226;63005;-65
2024/01/06 00:30:06;;;;;;;0.60;0.60;;;;;;;4.42;93.87;95655.09;29396;239;63009;-56
2024/01/06 00:30:37;;;;;;;0.50;0.50;;;;;;;4.40;93.46;95655.38;29395;232;63004;-65
2024/01/06 00:31:09;;;;;;;0.60;0.60;;;;;;;4.38;93.98;95660.22;29396;371;63009;-64
2024/01/06 00:31:41;;;;;;;0.60;0.60;;;;;;;4.38;93.83;95665.59;29396;266;63004;-56
2024/01/06 00:32:13;;;;;;;0.60;0.60;;;;;;;4.37;93.96;95659.41;29396;279;63008;-63
2024/01/06 00:32:44;;;;;;;0.60;0.60;;;;;;;4.37;93.72;95663.97;29396;213;63004;-64
2024/01/06 00:33:16;;;;;;;0.60;0.60;;;;;;;4.37;94.01;95661.31;29396;259;63009;-70
2024/01/06 00:33:48;;;;;;;0.60;0.60;;;;;;;4.39;93.88;95659.13;29396;224;63017;-55
2024/01/06 00:34:22;;;;;;;0.60;0.60;;;;;;;4.38;94.02;95663.69;29395;274;64014;-64
2024/01/06 00:34:54;;;;;;;0.60;0.60;;;;;;;4.38;93.93;95662.91;29396;267;63005;-66
2024/01/06 00:35:26;;;;;;;0.60;0.60;;;;;;;4.41;93.89;95662.34;29396;221;63009;-64
2024/01/06 00:35:57;;;;;;;0.60;0.60;;;;;;;4.41;93.47;95662.34;29396;366;63005;-64
2024/01/06 00:36:28;;;;;;;0.60;0.60;;;;;;;4.39;93.46;95664.50;29396;207;63009;-64
2024/01/06 00:37:03;;;;;;;0.60;0.60;;;;;;;4.39;93.31;95656.44;29396;271;63005;-63
2024/01/06 00:37:37;;;;;;;0.60;0.60;;;;;;;4.38;93.33;95662.91;29396;204;63009;-66
2024/01/06 00:38:08;;;;;;;0.60;0.60;;;;;;;4.37;94.05;95661.31;29396;245;63004;-64
2024/01/06 00:38:40;;;;;;;0.60;0.60;;;;;;;4.35;93.76;95655.41;29396;204;63009;-65
2024/01/06 00:39:11;;;;;;;0.60;0.60;;;;;;;4.34;93.91;95656.50;29396;225;63004;-65
2024/01/06 00:39:42;;;;;;;0.57;0.57;;;;;;;4.33;93.63;95660.25;29395;295;64013;-65
2024/01/06 00:40:16;;;;;;;0.50;0.50;;;;;;;4.32;93.88;95664.03;29396;221;63004;-64
2024/01/06 00:40:47;;;;;;;0.60;0.60;;;;;;;4.31;93.88;95662.44;29396;222;63021;-55
2024/01/06 00:41:18;;;;;;;0.50;0.50;;;;;;;4.30;93.96;95656.25;29396;275;63005;-63
2024/01/06 00:41:49;;;;;;;0.60;0.60;;;;;;;4.30;94.34;95661.63;29396;203;63019;-54
2024/01/06 00:42:21;;;;;;;0.60;0.60;;;;;;;4.30;94.11;95661.63;29396;276;63005;-64
2024/01/06 00:42:52;;;;;;;0.60;0.60;;;;;;;4.32;94.38;95664.03;29395;249;64009;-64
2024/01/06 00:43:23;;;;;;;0.60;0.60;;;;;;;4.34;94.47;95659.19;29395;205;64005;-64
2024/01/06 00:43:54;;;;;;;0.60;0.60;;;;;;;4.32;94.23;95662.16;29396;213;63009;-64
2024/01/06 00:44:25;;;;;;;0.60;0.60;;;;;;;4.32;94.07;95661.34;29396;213;63005;-64
2024/01/06 00:44:57;;;;;;;0.60;0.60;;;;;;;4.32;94.17;95664.03;29395;231;64013;-64
2024/01/06 00:45:28;;;;;;;0.60;0.60;;;;;;;4.31;94.42;95663.22;29396;232;63004;-63
2024/01/06 00:46:01;;;;;;;0.60;0.60;;;;;;;4.31;94.55;95662.44;29396;208;63009;-65
2024/01/06 00:46:33;;;;;;;0.60;0.60;;;;;;;4.32;94.57;95664.03;29396;274;63004;-62
2024/01/06 00:47:04;;;;;;;0.60;0.60;;;;;;;4.32;94.43;95664.03;29396;213;63009;-63
2024/01/06 00:47:35;;;;;;;0.60;0.60;;;;;;;4.31;94.03;95665.09;29396;221;63004;-64
2024/01/06 00:48:07;;;;;;;0.60;0.60;;;;;;;4.31;94.20;95667.78;29396;241;63009;-64
2024/01/06 00:48:38;;;;;;;0.60;0.60;;;;;;;4.30;94.23;95663.50;29396;299;63005;-64
2024/01/06 00:49:09;;;;;;;0.60;0.60;;;;;;;4.27;94.38;95664.06;29396;221;63009;-55
2024/01/06 00:49:42;;;;;;;0.50;0.50;;;;;;;4.31;94.48;95667.78;29396;247;63005;-63
2024/01/06 00:50:14;;;;;;;0.55;0.55;;;;;;;4.31;94.46;95667.78;29395;253;64013;-63
2024/01/06 00:50:45;;;;;;;0.60;0.60;;;;;;;4.30;94.21;95667.00;29396;240;63005;-64
2024/01/06 00:51:16;;;;;;;0.60;0.60;;;;;;;4.30;94.14;95666.19;29396;202;63009;-63
2024/01/06 00:51:47;;;;;;;0.50;0.50;;;;;;;4.29;94.19;95665.41;29396;244;63005;-63
2024/01/06 00:52:20;;;;;;;0.52;0.52;;;;;;;4.28;94.28;95663.78;29396;222;63009;-55
2024/01/06 00:52:53;;;;;;;0.55;0.55;;;;;;;4.28;94.47;95668.34;29395;202;64009;-63
2024/01/06 00:53:24;;;;;;;0.60;0.60;;;;;;;4.26;94.58;95670.53;29396;254;63009;-62
2024/01/06 00:53:59;;;;;;;0.50;0.50;;;;;;;4.25;95.00;95668.91;29396;197;63004;-63
2024/01/06 00:54:30;;;;;;;0.60;0.60;;;;;;;4.25;94.97;95668.91;29396;205;63009;-62
2024/01/06 00:55:02;;;;;;;0.60;0.60;;;;;;;4.23;94.97;95671.09;29396;198;63004;-64
2024/01/06 00:55:34;;;;;;;0.60;0.60;;;;;;;4.20;94.79;95671.66;29396;295;63008;-64
2024/01/06 00:56:05;;;;;;;0.60;0.60;;;;;;;4.19;95.25;95673.53;29395;281;64005;-55
2024/01/06 00:56:37;;;;;;;0.60;0.60;;;;;;;4.20;95.12;95672.44;29396;205;63009;-64
2024/01/06 00:57:08;;;;;;;0.60;0.60;;;;;;;4.19;95.33;95672.72;29396;235;63005;-64
2024/01/06 00:57:39;;;;;;;0.60;0.60;;;;;;;4.18;95.67;95673.81;29396;233;63009;-63
2024/01/06 00:58:13;;;;;;;0.60;0.60;;;;;;;4.15;96.19;95679.78;29395;225;64009;-64
2024/01/06 00:58:44;;;;;;;0.60;0.60;;;;;;;4.13;96.39;95671.19;29396;264;63009;-63
2024/01/06 00:59:15;;;;;;;0.60;0.60;;;;;;;4.11;96.60;95673.34;29396;225;63008;-64
2024/01/06 00:59:46;;;;;;;0.60;0.60;;;;;;;4.11;96.40;95681.41;29396;225;63009;-63
2024/01/06 01:00:19;;;;;;;0.60;0.60;;;;;;;4.10;96.62;95682.50;29396;226;63004;-54
2024/01/06 01:00:50;;;;;;;0.60;0.60;;;;;;;4.10;96.26;95677.13;29396;226;63025;-64
2024/01/06 01:01:21;;;;;;;0.60;0.60;;;;;;;4.09;96.58;95680.88;29396;202;63004;-64
2024/01/06 01:01:53;;;;;;;0.60;0.60;;;;;;;4.10;96.31;95671.75;29396;229;63009;-54
2024/01/06 01:02:24;;;;;;;0.60;0.60;;;;;;;4.10;96.51;95683.28;29396;203;63004;-63
2024/01/06 01:02:56;;;;;;;0.60;0.60;;;;;;;4.11;96.51;95684.09;29396;235;63008;-63
2024/01/06 01:03:28;;;;;;;0.60;0.60;;;;;;;4.10;96.12;95677.13;29395;292;64009;-64
2024/01/06 01:03:59;;;;;;;0.57;0.57;;;;;;;4.10;96.44;95682.50;29396;285;63009;-64
2024/01/06 01:04:31;;;;;;;0.60;0.60;;;;;;;4.10;96.32;95682.50;29396;197;63005;-63
2024/01/06 01:05:02;;;;;;;0.60;0.60;;;;;;;4.10;96.42;95682.50;29396;229;63009;-54
2024/01/06 01:05:33;;;;;;;0.60;0.60;;;;;;;4.09;96.73;95675.53;29396;300;63005;-62
2024/01/06 01:06:05;;;;;;;0.60;0.60;;;;;;;4.10;96.55;95682.50;29396;233;63009;-63
2024/01/06 01:06:37;;;;;;;0.60;0.60;;;;;;;4.10;96.97;95677.13;29396;226;63005;-55
2024/01/06 01:07:08;;;;;;;0.60;0.60;;;;;;;4.08;96.82;95679.28;29396;216;63009;-63
2024/01/06 01:07:40;;;;;;;0.50;0.50;;;;;;;4.06;97.14;95682.25;29396;254;63017;-64
2024/01/06 01:08:12;;;;;;;0.55;0.55;;;;;;;4.05;97.20;95680.66;29396;216;63009;-63
2024/01/06 01:08:45;;;;;;;0.60;0.60;;;;;;;4.03;97.20;95678.25;29395;224;64009;-63
2024/01/06 01:09:16;;;;;;;0.55;0.55;;;;;;;4.04;97.19;95681.72;29396;228;63009;-65
2024/01/06 01:09:47;;;;;;;0.60;0.60;;;;;;;4.04;97.53;95687.91;29396;196;63004;-64
2024/01/06 01:10:19;;;;;;;0.60;0.60;;;;;;;4.06;97.38;95681.44;29396;258;63008;-64
2024/01/06 01:10:50;;;;;;;0.50;0.50;;;;;;;4.07;97.54;95683.84;29396;227;63005;-62
2024/01/06 01:11:22;;;;;;;0.60;0.60;;;;;;;4.07;97.48;95688.41;29397;209;63027;-61
2024/01/06 01:11:56;;;;;;;0.60;0.60;;;;;;;4.07;97.27;95678.47;29397;239;63005;-63
2024/01/06 01:12:28;;;;;;;0.60;0.60;;;;;;;4.08;97.39;95679.28;29397;234;63009;-64
2024/01/06 01:13:03;;;;;;;0.60;0.60;;;;;;;4.08;97.09;95679.28;29397;236;63005;-61
2024/01/06 01:13:36;;;;;;;0.60;0.60;;;;;;;4.06;97.31;95676.88;29397;260;63015;-63
2024/01/06 01:14:10;;;;;;;0.60;0.60;;;;;;;4.04;96.90;95685.22;29396;230;64009;-64
2024/01/06 01:14:41;;;;;;;0.57;0.57;;;;;;;4.04;96.90;95684.41;29397;219;63009;-64
2024/01/06 01:15:13;;;;;;;0.60;0.60;;;;;;;4.04;97.09;95679.84;29397;218;63004;-64
2024/01/06 01:15:44;;;;;;;0.60;0.60;;;;;;;4.03;97.12;95680.94;29397;214;63009;-64
2024/01/06 01:16:15;;;;;;;0.55;0.55;;;;;;;4.03;97.19;95678.25;29396;237;64004;-65
2024/01/06 01:16:53;;;;;;;0.60;0.60;;;;;;;4.04;97.04;95685.22;29397;302;63009;-63
2024/01/06 01:17:25;;;;;;;0.60;0.60;;;;;;;4.04;97.32;95679.84;29397;311;63004;-64
2024/01/06 01:17:58;;;;;;;0.60;0.60;;;;;;;4.03;96.89;95683.59;29397;222;63008;-64
2024/01/06 01:18:30;;;;;;;0.60;0.60;;;;;;;4.04;97.08;95679.84;29397;212;63008;-63
2024/01/06 01:19:02;;;;;;;0.60;0.60;;;;;;;4.04;96.85;95685.22;29397;223;63009;-63
2024/01/06 01:19:35;;;;;;;0.60;0.60;;;;;;;4.06;97.21;95684.12;29396;213;64009;-66
2024/01/06 01:20:07;;;;;;;0.52;0.52;;;;;;;4.06;97.00;95681.44;29397;206;63009;-64
2024/01/06 01:20:46;;;;;;;0.60;0.60;;;;;;;4.06;96.89;95692.19;29396;234;64009;-55
2024/01/06 01:21:18;;;;;;;0.60;0.60;;;;;;;4.03;97.19;95688.97;29397;203;63009;-66
2024/01/06 01:21:53;;;;;;;0.60;0.60;;;;;;;4.04;97.31;95693.25;29397;214;63005;-64
2024/01/06 01:22:24;;;;;;;0.60;0.60;;;;;;;4.08;97.32;95690.81;29397;196;63009;-63
2024/01/06 01:22:57;;;;;;;0.60;0.60;;;;;;;4.09;97.18;95691.62;29397;267;63004;-55
2024/01/06 01:23:28;;;;;;;0.60;0.60;;;;;;;4.07;97.12;95693.78;29397;236;63009;-55
2024/01/06 01:23:59;;;;;;;0.60;0.60;;;;;;;4.06;96.84;95692.19;29397;218;63004;-63
2024/01/06 01:24:30;;;;;;;0.60;0.60;;;;;;;4.03;96.88;95686.28;29397;242;63009;-64
2024/01/06 01:25:07;;;;;;;0.60;0.60;;;;;;;4.04;97.26;95689.78;29396;249;63004;-55
2024/01/06 01:25:38;;;;;;;0.60;0.60;;;;;;;4.03;97.33;95694.34;29395;239;64013;-64
2024/01/06 01:26:13;;;;;;;0.60;0.60;;;;;;;4.03;97.25;95691.66;29397;285;63005;-64
2024/01/06 01:26:45;;;;;;;0.60;0.60;;;;;;;4.01;97.04;95693.81;29396;202;63009;-64
2024/01/06 01:27:16;;;;;;;0.60;0.60;;;;;;;4.02;97.30;95692.75;29396;206;63005;-64
2024/01/06 01:27:49;;;;;;;0.52;0.52;;;;;;;4.02;97.13;95691.94;29396;239;63009;-64
2024/01/06 01:28:20;;;;;;;0.60;0.60;;;;;;;4.02;97.32;95689.25;29396;211;63005;-64
2024/01/06 01:28:56;;;;;;;0.60;0.60;;;;;;;4.02;97.19;95690.06;29396;232;63009;-64
2024/01/06 01:29:28;;;;;;;0.60;0.60;;;;;;;4.02;97.19;95695.44;29396;274;63004;-65
2024/01/06 01:29:59;;;;;;;0.60;0.60;;;;;;;4.02;97.34;95692.75;29396;208;63009;-55
2024/01/06 01:30:32;;;;;;;0.60;0.60;;;;;;;4.02;97.23;95687.37;29396;301;63004;-62
2024/01/06 01:31:03;;;;;;;0.60;0.60;;;;;;;4.01;97.47;95696.50;29395;206;64010;-64
2024/01/06 01:31:34;;;;;;;0.60;0.60;;;;;;;3.99;97.50;95693.31;29396;197;63004;-57
2024/01/06 01:32:07;;;;;;;0.60;0.60;;;;;;;4.00;97.33;95694.91;29396;269;63017;-65
2024/01/06 01:32:38;;;;;;;0.50;0.50;;;;;;;3.99;97.40;95698.66;29396;253;63012;-63
2024/01/06 01:33:11;;;;;;;0.60;0.60;;;;;;;4.00;97.35;95700.28;29396;231;63018;-62
2024/01/06 01:33:45;;;;;;;0.60;0.60;;;;;;;4.00;97.49;95700.28;29396;267;63005;-54
2024/01/06 01:34:17;;;;;;;0.60;0.60;;;;;;;4.00;97.53;95694.91;29396;264;63009;-54
2024/01/06 01:34:49;;;;;;;0.60;0.60;;;;;;;4.00;97.42;95696.78;29396;254;63005;-64
2024/01/06 01:35:20;;;;;;;0.60;0.60;;;;;;;4.00;97.19;95697.59;29396;202;63009;-56
2024/01/06 01:35:51;;;;;;;0.60;0.60;;;;;;;4.01;97.46;95701.87;29396;203;63005;-55
2024/01/06 01:36:23;;;;;;;0.60;0.60;;;;;;;4.00;97.25;95700.28;29395;205;64013;-62
2024/01/06 01:36:54;;;;;;;0.60;0.60;;;;;;;3.99;97.19;95698.66;29396;203;63004;-60
2024/01/06 01:37:25;;;;;;;0.60;0.60;;;;;;;3.99;96.84;95701.34;29396;212;63009;-62
2024/01/06 01:37:56;;;;;;;0.60;0.60;;;;;;;3.99;97.04;95697.88;29396;203;63004;-55
2024/01/06 01:38:28;;;;;;;0.57;0.57;;;;;;;3.98;97.00;95705.13;29396;202;63009;-69
2024/01/06 01:39:00;;;;;;;0.60;0.60;;;;;;;4.01;97.02;95703.75;29396;230;63004;-56
2024/01/06 01:39:32;;;;;;;0.60;0.60;;;;;;;4.01;96.85;95701.06;29396;202;63016;-65
2024/01/06 01:40:07;;;;;;;0.60;0.60;;;;;;;4.01;96.86;95704.56;29396;219;63005;-65
2024/01/06 01:40:39;;;;;;;0.60;0.60;;;;;;;4.02;96.91;95697.31;29396;219;63009;-65
2024/01/06 01:41:10;;;;;;;0.50;0.50;;;;;;;4.02;96.93;95702.69;29396;258;63005;-55
2024/01/06 01:41:43;;;;;;;0.55;0.55;;;;;;;4.03;97.09;95702.41;29395;224;64014;-65
2024/01/06 01:42:14;;;;;;;0.60;0.60;;;;;;;4.03;97.08;95699.72;29396;204;63005;-64
2024/01/06 01:42:47;;;;;;;0.55;0.55;;;;;;;4.01;97.33;95696.50;29396;242;63009;-56
2024/01/06 01:43:19;;;;;;;0.60;0.60;;;;;;;4.01;97.31;95707.25;29396;214;63005;-64
2024/01/06 01:43:57;;;;;;;0.60;0.60;;;;;;;4.00;96.73;95705.62;29396;213;63009;-66
2024/01/06 01:44:29;;;;;;;0.60;0.60;;;;;;;3.98;96.38;95697.06;29395;221;64004;-55
2024/01/06 01:45:01;;;;;;;0.60;0.60;;;;;;;4.00;96.09;95699.47;29396;217;63009;-64
2024/01/06 01:45:32;;;;;;;0.60;0.60;;;;;;;4.00;96.40;95699.47;29396;282;63004;-62
2024/01/06 01:46:04;;;;;;;0.57;0.57;;;;;;;4.01;96.33;95701.06;29396;223;63009;-64
2024/01/06 01:46:35;;;;;;;0.60;0.60;;;;;;;4.01;96.47;95707.25;29396;223;63004;-63
2024/01/06 01:47:07;;;;;;;0.60;0.60;;;;;;;4.01;96.58;95704.56;29395;204;64013;-64
2024/01/06 01:47:39;;;;;;;0.50;0.50;;;;;;;4.02;96.51;95708.03;29396;223;63017;-56
2024/01/06 01:48:11;;;;;;;0.60;0.60;;;;;;;4.02;96.10;95703.47;29396;206;63009;-63
2024/01/06 01:48:42;;;;;;;0.60;0.60;;;;;;;4.01;95.93;95709.13;29396;219;63005;-64
2024/01/06 01:49:13;;;;;;;0.60;0.60;;;;;;;4.00;96.11;95705.62;29396;242;63009;-64
2024/01/06 01:49:48;;;;;;;0.60;0.60;;;;;;;4.00;96.52;95702.97;29396;250;63005;-62
2024/01/06 01:50:22;;;;;;;0.57;0.57;;;;;;;4.00;96.28;95705.62;29396;214;63009;-55
2024/01/06 01:50:54;;;;;;;0.60;0.60;;;;;;;4.01;96.18;95707.25;29396;227;63005;-55
2024/01/06 01:51:29;;;;;;;0.60;0.60;;;;;;;3.99;96.47;95720.13;29396;209;63009;-54
2024/01/06 01:52:01;;;;;;;0.60;0.60;;;;;;;4.00;96.54;95711.00;29396;243;63004;-56
2024/01/06 01:52:32;;;;;;;0.60;0.60;;;;;;;4.00;96.27;95711.00;29395;306;64013;-64
2024/01/06 01:53:04;;;;;;;0.60;0.60;;;;;;;4.00;96.72;95711.00;29396;230;63004;-55
2024/01/06 01:53:36;;;;;;;0.60;0.60;;;;;;;4.01;96.64;95712.63;29396;196;63016;-64
2024/01/06 01:54:11;;;;;;;0.60;0.60;;;;;;;4.02;96.95;95713.41;29396;198;63004;-63
2024/01/06 01:54:44;;;;;;;0.60;0.60;;;;;;;4.02;97.13;95714.22;29396;197;63008;-65
2024/01/06 01:55:17;;;;;;;0.60;0.60;;;;;;;4.03;96.76;95718.50;29396;219;63005;-65
2024/01/06 01:55:49;;;;;;;0.60;0.60;;;;;;;4.02;96.69;95710.72;29396;203;63027;-64
2024/01/06 01:56:22;;;;;;;0.60;0.60;;;;;;;4.00;96.74;95713.69;29396;204;63005;-65
2024/01/06 01:56:56;;;;;;;0.60;0.60;;;;;;;4.01;97.18;95711.81;29396;209;63009;-55
2024/01/06 01:57:28;;;;;;;0.60;0.60;;;;;;;4.00;96.94;95720.94;29396;248;63005;-64
2024/01/06 01:58:00;;;;;;;0.60;0.60;;;;;;;3.99;96.99;95712.09;29395;210;64005;-54
2024/01/06 01:58:32;;;;;;;0.60;0.60;;;;;;;3.99;97.00;95713.97;29396;233;63005;-64
2024/01/06 01:59:09;;;;;;;0.60;0.60;;;;;;;3.98;97.25;95723.91;29396;305;63009;-65
2024/01/06 01:59:41;;;;;;;0.60;0.60;;;;;;;3.97;97.24;95716.94;29396;251;63004;-63
2024/01/06 02:00:13;;;;;;;0.60;0.60;;;;;;;3.96;97.29;95715.31;29396;209;63024;-63
2024/01/06 02:00:45;;;;;;;0.60;0.60;;;;;;;3.96;97.44;95720.69;29396;252;63004;-64
2024/01/06 02:01:17;;;;;;;0.60;0.60;;;;;;;3.96;97.17;95723.38;29396;250;63009;-63
2024/01/06 02:01:50;;;;;;;0.60;0.60;;;;;;;3.97;97.41;95721.50;29396;210;63004;-63
2024/01/06 02:02:22;;;;;;;0.60;0.60;;;;;;;3.96;97.16;95722.56;29396;243;63008;-63
2024/01/06 02:02:57;;;;;;;0.60;0.60;;;;;;;3.97;97.24;95722.31;29396;208;63005;-65
2024/01/06 02:03:33;;;;;;;0.60;0.60;;;;;;;3.96;97.50;95714.53;29396;266;64014;-55
2024/01/06 02:04:04;;;;;;;0.50;0.50;;;;;;;3.95;97.45;95727.13;29396;200;63005;-55
2024/01/06 02:04:37;;;;;;;0.60;0.60;;;;;;;3.97;97.66;95724.97;29396;282;63009;-64
2024/01/06 02:05:08;;;;;;;0.60;0.60;;;;;;;3.98;97.10;95723.91;29396;212;63005;-65
2024/01/06 02:05:39;;;;;;;0.60;0.60;;;;;;;3.98;96.92;95721.22;29396;204;63009;-65
2024/01/06 02:06:13;;;;;;;0.60;0.60;;;;;;;3.98;97.04;95723.91;29396;214;63005;-64
2024/01/06 02:06:44;;;;;;;0.60;0.60;;;;;;;3.98;96.67;95718.53;29396;206;63009;-65
2024/01/06 02:07:17;;;;;;;0.60;0.60;;;;;;;3.98;96.70;95729.28;29396;298;63004;-62
2024/01/06 02:07:50;;;;;;;0.60;0.60;;;;;;;3.98;96.42;95723.91;29395;208;64009;-55
2024/01/06 02:08:23;;;;;;;0.60;0.60;;;;;;;3.99;96.30;95725.50;29396;209;63004;-64
2024/01/06 02:08:59;;;;;;;0.60;0.60;;;;;;;3.99;96.35;95725.50;29395;226;64013;-56
2024/01/06 02:09:30;;;;;;;0.60;0.60;;;;;;;3.99;95.87;95724.72;29396;204;63004;-63
2024/01/06 02:10:02;;;;;;;0.60;0.60;;;;;;;3.99;95.72;95724.72;29396;201;63008;-62
2024/01/06 02:10:34;;;;;;;0.60;0.60;;;;;;;3.99;95.54;95724.72;29396;225;63005;-63
2024/01/06 02:11:05;;;;;;;0.60;0.60;;;;;;;3.99;95.91;95720.13;29396;234;63009;-63
2024/01/06 02:11:38;;;;;;;0.60;0.60;;;;;;;3.99;95.73;95725.50;29396;209;63005;-64
2024/01/06 02:12:09;;;;;;;0.60;0.60;;;;;;;3.99;95.67;95722.81;29396;250;63018;-63
2024/01/06 02:12:40;;;;;;;0.52;0.52;;;;;;;3.99;95.59;95722.81;29396;309;63005;-64
2024/01/06 02:13:12;;;;;;;0.60;0.60;;;;;;;3.99;95.66;95728.19;29397;235;63009;-64
2024/01/06 02:13:46;;;;;;;0.60;0.60;;;;;;;3.99;95.81;95728.19;29397;263;63008;-63
2024/01/06 02:14:18;;;;;;;0.60;0.60;;;;;;;3.99;95.65;95725.50;29395;222;64013;-56
2024/01/06 02:14:50;;;;;;;0.60;0.60;;;;;;;3.98;95.75;95723.91;29397;225;63004;-63
2024/01/06 02:15:23;;;;;;;0.60;0.60;;;;;;;3.96;95.94;95720.69;29397;227;63011;-63
2024/01/06 02:15:55;;;;;;;0.60;0.60;;;;;;;3.96;95.74;95730.63;29397;307;63004;-63
2024/01/06 02:16:27;;;;;;;0.60;0.60;;;;;;;3.97;96.26;95730.34;29397;220;63009;-64
2024/01/06 02:16:58;;;;;;;0.60;0.60;;;;;;;3.97;95.64;95733.03;29397;252;63004;-55
2024/01/06 02:17:30;;;;;;;0.60;0.60;;;;;;;4.00;95.97;95737.03;29395;199;63008;-62
2024/01/06 02:18:02;;;;;;;0.60;0.60;;;;;;;4.01;95.87;95730.59;29395;204;63005;-65
2024/01/06 02:18:34;;;;;;;0.60;0.60;;;;;;;4.02;95.76;95734.88;29395;220;63009;-63
2024/01/06 02:19:11;;;;;;;0.60;0.60;;;;;;;4.02;95.34;95734.88;29395;221;63005;-65
2024/01/06 02:19:42;;;;;;;0.60;0.60;;;;;;;4.03;95.46;95731.91;29393;213;64013;-55
2024/01/06 02:20:19;;;;;;;0.60;0.60;;;;;;;4.06;95.15;95733.25;29395;198;63005;-62
2024/01/06 02:20:53;;;;;;;0.57;0.57;;;;;;;4.07;95.15;95734.06;29395;248;63013;-64
2024/01/06 02:21:27;;;;;;;0.60;0.60;;;;;;;4.09;94.80;95739.94;29395;251;63004;-64
2024/01/06 02:22:01;;;;;;;0.50;0.50;;;;;;;4.10;94.80;95741.53;29395;250;63009;-55
2024/01/06 02:22:33;;;;;;;0.50;0.50;;;;;;;4.15;94.29;95731.59;29395;206;63004;-56
2024/01/06 02:23:04;;;;;;;0.60;0.60;;;;;;;4.16;94.03;95729.69;29395;218;63009;-55
2024/01/06 02:23:39;;;;;;;0.60;0.60;;;;;;;4.16;93.43;95732.37;29395;208;63004;-64
2024/01/06 02:24:11;;;;;;;0.60;0.60;;;;;;;4.12;93.50;95724.09;29394;217;64008;-55
2024/01/06 02:24:43;;;;;;;0.50;0.50;;;;;;;4.13;93.29;95730.25;29393;202;64008;-63
2024/01/06 02:25:15;;;;;;;0.60;0.60;;;;;;;4.11;93.50;95737.78;29395;205;63008;-64
2024/01/06 02:25:47;;;;;;;0.60;0.60;;;;;;;4.10;93.21;95739.66;29395;293;63005;-64
2024/01/06 02:26:18;;;;;;;0.60;0.60;;;;;;;4.11;93.73;95737.78;29395;217;63009;-63
2024/01/06 02:26:50;;;;;;;0.60;0.60;;;;;;;4.12;93.62;95734.81;29395;237;63005;-63
2024/01/06 02:27:22;;;;;;;0.60;0.60;;;;;;;4.12;93.11;95739.38;29395;223;63009;-63
2024/01/06 02:27:54;;;;;;;0.60;0.60;;;;;;;4.13;93.38;95735.63;29395;223;63011;-63
2024/01/06 02:28:25;;;;;;;0.60;0.60;;;;;;;4.11;93.23;95732.41;29395;226;63020;-63
2024/01/06 02:28:57;;;;;;;0.60;0.60;;;;;;;4.11;93.28;95735.91;29395;229;63004;-62
2024/01/06 02:29:28;;;;;;;0.60;0.60;;;;;;;4.11;93.69;95737.78;29394;248;64009;-56
2024/01/06 02:30:00;;;;;;;0.60;0.60;;;;;;;4.12;93.52;95739.38;29393;234;64009;-63
2024/01/06 02:30:31;;;;;;;0.60;0.60;;;;;;;4.10;93.06;95738.88;29395;215;63009;-63
2024/01/06 02:31:06;;;;;;;0.60;0.60;;;;;;;4.10;93.64;95736.19;29395;227;63004;-63
2024/01/06 02:31:37;;;;;;;0.60;0.60;;;;;;;4.09;94.14;95739.94;29395;202;63008;-54
2024/01/06 02:32:08;;;;;;;0.60;0.60;;;;;;;4.11;93.96;95743.16;29395;221;63005;-63
2024/01/06 02:32:40;;;;;;;0.60;0.60;;;;;;;4.13;93.59;95741.00;29395;248;63009;-66
2024/01/06 02:33:11;;;;;;;0.60;0.60;;;;;;;4.13;93.14;95741.78;29395;240;63005;-62
2024/01/06 02:33:43;;;;;;;0.60;0.60;;;;;;;4.14;92.72;95745.28;29395;247;63009;-56
2024/01/06 02:34:14;;;;;;;0.60;0.60;;;;;;;4.14;92.69;95746.09;29395;224;63005;-55
2024/01/06 02:34:45;;;;;;;0.60;0.60;;;;;;;4.14;92.68;95747.97;29396;202;63009;-62
2024/01/06 02:35:17;;;;;;;0.60;0.60;;;;;;;4.13;93.02;95743.69;29393;235;64009;-64